Time;durP1;ratioP1;P1;durP2;ratioP2;P2;SDS_P1;SDS_P2;PMS_P1;PMS_P2;Temp;Humidity;BMP_temperature;BMP_pressure;BME280_temperature;BME280_humidity;BME280_pressure;Samples;Min_cycle;Max_cycle;Signal;HPM_P1;HPM_P2
2023/02/16 00:01:21;;;;;;;105.97;62.87;;;6.00;99.90;;;;;;4935017;29;38327;-81
2023/02/16 00:03:57;;;;;;;111.33;66.70;;;5.90;99.90;;;;;;4929064;29;36603;-83
2023/02/16 00:06:26;;;;;;;122.53;69.57;;;5.70;99.90;;;;;;4921663;29;38366;-83
2023/02/16 00:09:02;;;;;;;117.40;66.10;;;5.90;99.90;;;;;;4922122;29;38552;-83
2023/02/16 00:14:27;;;;;;;116.07;68.33;;;5.90;99.90;;;;;;4947839;29;48819;-83
2023/02/16 00:16:58;;;;;;;112.73;67.03;;;5.90;99.90;;;;;;4924106;29;37725;-82
2023/02/16 00:19:36;;;;;;;112.20;65.53;;;5.90;99.90;;;;;;4955267;29;38892;-83
2023/02/16 00:22:05;;;;;;;112.57;63.97;;;5.90;99.90;;;;;;4952403;29;37566;-80
2023/02/16 00:24:32;;;;;;;115.87;68.57;;;5.80;99.90;;;;;;4930710;29;36822;-84
2023/02/16 00:26:59;;;;;;;109.33;65.03;;;5.70;99.90;;;;;;4921242;29;39178;-83
2023/02/16 00:29:41;;;;;;;111.13;65.27;;;5.60;99.90;;;;;;4932955;28;37887;-83
2023/02/16 00:34:59;;;;;;;112.13;64.57;;;5.60;99.90;;;;;;4995685;23;20056;-81
2023/02/16 00:37:26;;;;;;;;;;;5.60;99.90;;;;;;4909508;29;39263;-80
2023/02/16 00:40:20;;;;;;;115.23;66.37;;;5.70;99.90;;;;;;4922442;29;37930;-80
2023/02/16 00:42:51;;;;;;;109.30;66.03;;;5.70;99.90;;;;;;4929031;29;49208;-80
2023/02/16 00:45:28;;;;;;;114.93;67.53;;;5.60;99.90;;;;;;4915654;29;38431;-80
2023/02/16 00:47:59;;;;;;;116.57;67.30;;;5.60;99.90;;;;;;4928570;28;40203;-80
2023/02/16 00:50:35;;;;;;;113.87;66.93;;;5.60;99.90;;;;;;4932281;29;50258;-80
2023/02/16 00:53:07;;;;;;;107.93;64.73;;;5.60;99.90;;;;;;4916979;29;38779;-80
2023/02/16 00:55:56;;;;;;;119.77;68.57;;;5.70;99.90;;;;;;4938286;29;38980;-82
2023/02/16 00:58:29;;;;;;;119.67;69.43;;;5.70;99.90;;;;;;4913494;29;38942;-80
2023/02/16 01:01:12;;;;;;;107.73;65.80;;;5.80;99.90;;;;;;4918020;29;38460;-81
2023/02/16 01:03:45;;;;;;;112.47;64.63;;;5.80;99.90;;;;;;4877878;29;48272;-81
2023/02/16 01:16:27;;;;;;;101.97;61.93;;;5.80;99.90;;;;;;4850066;29;50068;-81
2023/02/16 01:18:55;;;;;;;107.03;63.33;;;5.90;99.90;;;;;;4880758;29;48668;-81
2023/02/16 01:21:59;;;;;;;105.00;63.37;;;5.90;99.90;;;;;;4905993;29;40957;-82
2023/02/16 01:24:33;;;;;;;101.27;58.90;;;5.90;99.90;;;;;;4930091;29;38791;-83
2023/02/16 01:27:20;;;;;;;103.60;62.43;;;5.90;99.90;;;;;;4907537;28;37827;-83
2023/02/16 01:29:47;;;;;;;103.43;59.97;;;6.00;99.90;;;;;;4909976;29;48487;-83
2023/02/16 01:32:15;;;;;;;95.73;57.57;;;6.00;99.90;;;;;;4928340;29;39552;-82
2023/02/16 01:34:47;;;;;;;100.00;60.10;;;6.00;99.90;;;;;;4913439;29;38777;-83
2023/02/16 01:37:15;;;;;;;95.35;56.85;;;6.00;99.90;;;;;;4907922;29;37138;-82
2023/02/16 01:39:45;;;;;;;95.07;57.83;;;6.00;99.90;;;;;;4915857;29;37652;-82
2023/02/16 01:42:51;;;;;;;98.33;56.70;;;6.00;99.90;;;;;;4933004;29;40355;-83
2023/02/16 01:45:33;;;;;;;95.93;58.03;;;6.10;99.90;;;;;;4915929;28;39919;-83
2023/02/16 01:48:12;;;;;;;90.97;56.22;;;6.10;99.90;;;;;;4924024;29;38292;-82
2023/02/16 01:51:04;;;;;;;98.53;57.17;;;6.00;99.90;;;;;;4904435;29;50399;-83
2023/02/16 01:54:00;;;;;;;91.60;55.97;;;6.00;99.90;;;;;;4906480;28;50051;-84
2023/02/16 01:56:58;;;;;;;92.63;56.77;;;6.00;99.90;;;;;;4885256;29;47962;-81
2023/02/16 01:59:52;;;;;;;88.97;54.43;;;6.00;99.90;;;;;;4925945;28;48707;-80
2023/02/16 02:02:24;;;;;;;89.23;54.50;;;6.00;99.90;;;;;;5505790;23;37687;-82
2023/02/16 02:08:12;;;;;;;98.37;56.07;;;6.00;99.90;;;;;;4935066;29;50704;-84
2023/02/16 02:11:11;;;;;;;85.17;53.37;;;6.10;99.90;;;;;;4921035;29;48500;-84
2023/02/16 02:14:12;;;;;;;86.17;52.47;;;6.10;99.90;;;;;;4936800;29;49334;-83
2023/02/16 02:16:59;;;;;;;89.27;53.93;;;6.00;99.90;;;;;;4846958;29;48172;-85
2023/02/16 02:19:26;;;;;;;89.97;53.60;;;6.10;99.90;;;;;;4946962;28;38813;-84
2023/02/16 02:25:41;;;;;;;89.03;54.87;;;6.10;99.90;;;;;;4916760;29;50519;-84
2023/02/16 02:29:06;;;;;;;88.20;52.07;;;6.20;99.90;;;;;;4930551;29;39202;-85
2023/02/16 02:31:47;;;;;;;83.07;51.33;;;6.20;99.90;;;;;;4945784;29;49727;-83
2023/02/16 02:34:58;;;;;;;80.33;51.13;;;6.20;99.90;;;;;;4917570;29;38064;-85
2023/02/16 02:37:43;;;;;;;81.83;50.30;;;6.30;99.90;;;;;;4917173;29;38821;-84
2023/02/16 02:40:47;;;;;;;82.17;48.53;;;6.30;99.90;;;;;;4920022;29;38458;-84
2023/02/16 02:43:26;;;;;;;79.40;51.73;;;6.30;99.90;;;;;;4904981;29;38072;-85
2023/02/16 02:46:00;;;;;;;75.40;49.23;;;6.30;99.90;;;;;;4926649;29;38344;-84
2023/02/16 02:48:31;;;;;;;81.73;50.23;;;6.30;99.90;;;;;;4907301;29;37370;-85
2023/02/16 03:00:39;;;;;;;80.97;49.17;;;6.30;99.90;;;;;;4931765;29;50274;-84
2023/02/16 03:02:15;;;;;;;78.77;49.80;;;6.30;99.90;;;;;;4936178;29;40517;-82
2023/02/16 03:04:51;;;;;;;79.40;49.00;;;6.30;99.90;;;;;;4928589;29;39494;-84
2023/02/16 03:07:21;;;;;;;80.73;50.53;;;6.30;99.90;;;;;;4929879;29;38160;-83
2023/02/16 03:12:44;;;;;;;87.00;50.93;;;6.40;99.90;;;;;;4914608;29;36197;-85
2023/02/16 03:12:44;;;;;;;80.77;49.03;;;6.30;99.90;;;;;;4937718;29;49120;-83
2023/02/16 03:15:10;;;;;;;80.70;50.70;;;6.40;99.90;;;;;;4921985;29;37585;-84
2023/02/16 03:31:41;;;;;;;80.23;50.33;;;6.50;99.90;;;;;;4942975;29;38569;-84
2023/02/16 03:34:20;;;;;;;82.37;49.40;;;6.50;99.90;;;;;;4930920;29;38762;-85
2023/02/16 03:37:12;;;;;;;77.63;49.93;;;6.60;99.90;;;;;;4922843;29;36707;-85
2023/02/16 03:42:24;;;;;;;79.87;50.57;;;6.50;99.90;;;;;;4934188;29;38576;-85
2023/02/16 03:44:54;;;;;;;76.77;47.80;;;6.60;99.90;;;;;;4929562;29;38918;-84
2023/02/16 03:47:20;;;;;;;82.30;50.03;;;6.50;99.90;;;;;;4916086;29;37180;-82
2023/02/16 03:49:49;;;;;;;77.87;49.73;;;6.50;99.90;;;;;;4933699;29;39174;-84
2023/02/16 03:52:15;;;;;;;76.60;49.57;;;6.60;99.90;;;;;;4928577;28;36342;-84
2023/02/16 03:54:41;;;;;;;76.20;49.00;;;6.60;99.90;;;;;;4936645;29;39136;-83
2023/02/16 03:57:08;;;;;;;80.33;50.53;;;6.60;99.90;;;;;;4940186;28;38672;-85
2023/02/16 03:59:34;;;;;;;77.17;48.87;;;6.60;99.90;;;;;;4931650;29;39598;-84
2023/02/16 04:02:00;;;;;;;80.50;50.37;;;6.60;99.90;;;;;;4927906;29;37541;-85
2023/02/16 04:04:26;;;;;;;78.63;51.13;;;6.60;99.90;;;;;;4922147;29;38227;-83
2023/02/16 04:06:52;;;;;;;79.47;50.37;;;6.60;99.90;;;;;;4920651;29;37548;-84
2023/02/16 04:09:20;;;;;;;85.23;50.57;;;6.60;99.90;;;;;;4944597;29;38465;-83
2023/02/16 04:14:39;;;;;;;88.32;50.95;;;6.60;99.90;;;;;;4938048;29;50475;-84
2023/02/16 04:17:07;;;;;;;82.70;49.80;;;6.60;99.90;;;;;;4938503;29;38454;-84
2023/02/16 04:19:33;;;;;;;84.47;52.87;;;6.60;99.90;;;;;;4923056;29;37925;-85
2023/02/16 04:22:00;;;;;;;79.80;51.83;;;6.60;99.90;;;;;;4930309;29;37542;-84
2023/02/16 04:24:26;;;;;;;74.37;48.73;;;6.60;99.90;;;;;;4921618;29;37531;-84
2023/02/16 04:26:52;;;;;;;80.33;50.63;;;6.60;99.90;;;;;;4938628;29;38741;-84
2023/02/16 04:29:18;;;;;;;79.57;50.67;;;6.70;99.90;;;;;;4921703;29;37404;-84
2023/02/16 04:31:44;;;;;;;80.40;50.33;;;6.60;99.90;;;;;;4925628;29;37704;-83
2023/02/16 04:34:17;;;;;;;78.87;49.07;;;6.70;99.90;;;;;;4941608;29;40366;-84
2023/02/16 04:36:44;;;;;;;79.93;50.20;;;6.70;99.90;;;;;;4934819;29;37401;-84
2023/02/16 04:39:10;;;;;;;82.10;50.50;;;6.70;99.90;;;;;;4943211;29;38037;-83
2023/02/16 04:41:36;;;;;;;79.63;51.40;;;6.70;99.90;;;;;;4943543;29;37932;-83
2023/02/16 04:44:03;;;;;;;80.43;50.63;;;6.70;99.90;;;;;;4921435;29;37871;-84
2023/02/16 04:46:30;;;;;;;77.13;49.20;;;6.80;99.90;;;;;;4924597;29;38374;-82
2023/02/16 04:49:08;;;;;;;75.87;49.50;;;6.70;99.90;;;;;;4938997;29;38820;-84
2023/02/16 04:51:34;;;;;;;78.27;49.13;;;6.70;99.90;;;;;;4920309;29;46980;-84
2023/02/16 04:54:03;;;;;;;79.07;51.10;;;6.70;99.90;;;;;;4926030;29;37779;-83
2023/02/16 04:56:29;;;;;;;77.33;48.63;;;6.70;99.90;;;;;;4925480;29;47056;-84
2023/02/16 04:58:56;;;;;;;85.10;51.37;;;6.70;99.90;;;;;;4921331;29;36500;-84
2023/02/16 05:01:23;;;;;;;86.13;52.57;;;6.70;99.90;;;;;;4939499;29;38648;-85
2023/02/16 05:03:56;;;;;;;79.40;50.10;;;6.70;99.90;;;;;;4924157;29;39176;-83
2023/02/16 05:06:28;;;;;;;81.05;51.67;;;6.70;99.90;;;;;;4946763;28;39938;-83
2023/02/16 05:08:54;;;;;;;76.00;49.72;;;6.70;99.90;;;;;;4929372;29;36499;-83
2023/02/16 05:14:42;;;;;;;82.10;49.60;;;6.70;99.90;;;;;;4902955;29;39439;-84
2023/02/16 05:17:19;;;;;;;82.13;50.73;;;6.70;99.90;;;;;;4918086;29;37605;-84
2023/02/16 05:19:48;;;;;;;82.13;51.07;;;6.70;99.90;;;;;;4926891;29;37008;-84
2023/02/16 05:22:14;;;;;;;81.63;51.27;;;6.70;99.90;;;;;;4925021;29;36179;-84
2023/02/16 05:24:41;;;;;;;79.13;50.80;;;6.70;99.90;;;;;;4920712;29;37518;-83
2023/02/16 05:27:25;;;;;;;84.27;50.90;;;6.70;99.90;;;;;;4930325;29;39875;-83
2023/02/16 05:29:51;;;;;;;78.87;50.73;;;6.70;99.90;;;;;;4945727;29;38937;-83
2023/02/16 05:32:19;;;;;;;78.70;49.57;;;6.70;99.90;;;;;;4927639;29;36554;-85
2023/02/16 05:34:47;;;;;;;81.83;50.37;;;6.70;99.90;;;;;;4925524;29;39365;-84
2023/02/16 05:37:29;;;;;;;79.57;51.13;;;6.70;99.90;;;;;;4938385;29;39662;-84
2023/02/16 05:39:56;;;;;;;83.23;52.63;;;6.70;99.90;;;;;;4931569;29;36668;-84
2023/02/16 05:42:29;;;;;;;81.07;51.77;;;6.70;99.90;;;;;;4940404;29;39013;-85
2023/02/16 05:44:56;;;;;;;78.07;51.47;;;6.70;99.90;;;;;;4938094;29;39537;-83
2023/02/16 05:47:28;;;;;;;88.80;51.90;;;6.70;99.90;;;;;;4937264;29;38563;-84
2023/02/16 05:49:59;;;;;;;77.43;51.35;;;6.70;99.90;;;;;;4922201;29;36875;-84
2023/02/16 05:52:37;;;;;;;84.90;54.43;;;6.70;99.90;;;;;;4939685;29;38018;-83
2023/02/16 05:55:14;;;;;;;85.10;53.57;;;6.70;99.90;;;;;;4939740;29;37622;-81
2023/02/16 05:57:40;;;;;;;81.30;53.40;;;6.70;99.90;;;;;;4922352;29;37051;-85
2023/02/16 06:00:07;;;;;;;87.50;55.20;;;6.70;99.90;;;;;;4918150;29;37763;-83
2023/02/16 06:02:33;;;;;;;88.23;54.53;;;6.70;99.90;;;;;;4918870;29;37690;-84
2023/02/16 06:04:59;;;;;;;86.20;53.23;;;6.70;99.90;;;;;;4948488;28;39064;-84
2023/02/16 06:07:25;;;;;;;82.20;53.17;;;6.70;99.90;;;;;;4920653;29;38125;-84
2023/02/16 06:09:51;;;;;;;84.67;54.50;;;6.70;99.90;;;;;;4914490;29;38066;-84
2023/02/16 06:12:23;;;;;;;80.77;52.63;;;6.70;99.90;;;;;;4918889;29;37386;-84
2023/02/16 06:14:59;;;;;;;81.70;52.55;;;6.70;99.90;;;;;;4894317;29;38121;-85
2023/02/16 06:17:28;;;;;;;76.80;50.57;;;6.70;99.90;;;;;;4922512;29;39900;-83
2023/02/16 06:19:55;;;;;;;85.17;53.73;;;6.70;99.90;;;;;;4934819;29;38368;-84
2023/02/16 06:22:21;;;;;;;83.03;52.50;;;6.70;99.90;;;;;;4917121;29;36388;-83
2023/02/16 06:24:47;;;;;;;84.37;54.47;;;6.80;99.90;;;;;;4937911;29;40287;-84
2023/02/16 06:27:13;;;;;;;79.87;52.80;;;6.80;99.90;;;;;;4919511;29;38504;-83
2023/02/16 06:29:48;;;;;;;79.97;52.37;;;6.80;99.90;;;;;;4939650;29;37553;-84
2023/02/16 06:32:14;;;;;;;81.60;51.50;;;6.80;99.90;;;;;;4917227;29;37778;-83
2023/02/16 06:34:43;;;;;;;80.67;54.03;;;6.80;99.90;;;;;;4922689;29;38682;-83
2023/02/16 06:37:09;;;;;;;78.13;51.27;;;6.80;99.90;;;;;;4922400;29;36870;-84
2023/02/16 06:39:46;;;;;;;88.93;54.07;;;6.80;99.90;;;;;;4922384;29;39043;-83
2023/02/16 06:42:22;;;;;;;79.73;51.97;;;6.80;99.90;;;;;;4919626;28;37181;-82
2023/02/16 06:44:52;;;;;;;84.70;51.33;;;6.80;99.90;;;;;;4925362;29;37353;-84
2023/02/16 06:47:28;;;;;;;81.53;51.00;;;6.90;99.90;;;;;;4923113;29;38327;-83
2023/02/16 06:49:54;;;;;;;82.83;51.63;;;6.90;99.90;;;;;;4922289;29;37002;-83
2023/02/16 06:54:56;;;;;;;78.70;50.93;;;6.90;99.90;;;;;;5712985;23;19925;-82
2023/02/16 07:01:09;;;;;;;77.43;49.93;;;7.00;99.90;;;;;;5425243;23;20033;-81
2023/02/16 07:04:22;;;;;;;72.50;47.10;;;7.00;99.90;;;;;;4910625;28;49493;-81
2023/02/16 07:07:42;;;;;;;81.57;51.80;;;7.00;99.90;;;;;;4923590;29;39388;-81
2023/02/16 07:36:41;;;;;;;69.23;46.37;;;7.30;99.90;;;;;;5452488;23;20027;-79
2023/02/16 07:55:39;;;;;;;71.37;47.13;;;7.50;99.90;;;;;;5090403;23;20210;-82
2023/02/16 08:53:44;;;;;;;88.63;55.10;;;7.40;99.90;;;;;;5001561;23;20171;31
2023/02/16 09:27:42;;;;;;;86.43;56.67;;;7.80;99.90;;;;;;5989400;23;20024;31
2023/02/16 09:48:37;;;;;;;82.30;54.33;;;8.10;99.90;;;;;;4875241;29;20038;-83
2023/02/16 09:51:06;;;;;;;80.33;54.70;;;8.10;99.90;;;;;;5225768;23;37224;-83
2023/02/16 09:53:44;;;;;;;82.47;56.20;;;8.30;99.90;;;;;;5271254;23;40341;-81
2023/02/16 09:56:36;;;;;;;81.33;53.87;;;8.40;99.90;;;;;;5034512;23;39698;-83
2023/02/16 09:59:13;;;;;;;83.35;54.53;;;8.50;99.90;;;;;;5049930;23;38468;-82
2023/02/16 10:05:16;;;;;;;79.67;52.33;;;8.70;99.90;;;;;;4940763;28;49878;-81
2023/02/16 10:07:48;;;;;;;77.63;52.43;;;8.70;99.90;;;;;;4929120;28;48185;-82
2023/02/16 10:13:32;;;;;;;79.23;52.03;;;8.70;99.90;;;;;;5031107;23;20036;-84
2023/02/16 10:19:28;;;;;;;80.83;51.63;;;8.70;99.90;;;;;;4954491;23;40141;-82
2023/02/16 10:24:41;;;;;;;79.07;53.07;;;8.70;99.90;;;;;;5548984;23;20033;-82
2023/02/16 10:44:13;;;;;;;75.90;51.77;;;8.90;99.90;;;;;;5468159;23;20037;-79
2023/02/16 10:47:10;;;;;;;75.10;48.20;;;9.00;99.90;;;;;;5275779;23;49115;-83
2023/02/16 10:55:57;;;;;;;77.55;48.85;;;9.20;99.90;;;;;;5076567;23;20044;-82
2023/02/16 10:58:38;;;;;;;73.77;50.40;;;9.20;99.90;;;;;;4944358;28;37542;-83
2023/02/16 11:01:14;;;;;;;71.70;48.77;;;9.30;99.90;;;;;;4942652;28;37274;-80
2023/02/16 11:03:55;;;;;;;67.20;47.43;;;9.50;99.90;;;;;;5531709;23;38852;-82
2023/02/16 11:06:40;;;;;;;70.07;46.07;;;9.60;99.90;;;;;;4913053;29;39680;-81
2023/02/16 11:09:27;;;;;;;71.07;47.20;;;9.60;99.90;;;;;;4875643;29;37267;-83
2023/02/16 11:15:16;;;;;;;79.57;50.47;;;9.50;99.90;;;;;;5053579;23;50209;-81
2023/02/16 11:17:51;;;;;;;79.83;51.13;;;9.40;99.90;;;;;;4925328;29;37475;-82
2023/02/16 11:20:30;;;;;;;74.60;48.00;;;9.40;99.90;;;;;;4943982;28;37699;-82
2023/02/16 11:23:22;;;;;;;76.37;47.80;;;9.50;99.90;;;;;;4940124;29;36786;-81
2023/02/16 11:26:06;;;;;;;74.53;47.53;;;9.70;99.90;;;;;;4919604;29;48270;-81
2023/02/16 11:31:56;;;;;;;65.00;45.83;;;9.90;99.90;;;;;;5010139;23;50695;-81
2023/02/16 11:34:36;;;;;;;70.40;45.27;;;10.10;99.90;;;;;;4938023;28;35963;-83
2023/02/16 11:37:25;;;;;;;65.70;44.35;;;10.00;99.90;;;;;;4923513;28;38100;-83
2023/02/16 11:40:03;;;;;;;74.30;45.83;;;10.10;99.90;;;;;;4924856;28;37525;-84
2023/02/16 11:42:52;;;;;;;64.07;45.35;;;10.10;99.90;;;;;;4922828;28;36141;-83
2023/02/16 11:48:29;;;;;;;64.90;44.17;;;10.10;99.90;;;;;;5087845;23;20051;-83
2023/02/16 11:51:06;;;;;;;68.10;44.40;;;10.20;99.90;;;;;;4873994;29;50219;-81
2023/02/16 11:53:41;;;;;;;69.70;44.45;;;10.20;99.90;;;;;;4905340;29;46509;-81
2023/02/16 11:56:22;;;;;;;60.03;41.78;;;10.50;99.90;;;;;;4904082;29;37822;-81
2023/02/16 11:59:20;;;;;;;62.70;42.10;;;10.70;99.90;;;;;;4917165;29;39135;-80
2023/02/16 12:02:26;;;;;;;64.10;40.85;;;10.90;99.90;;;;;;4907675;28;47072;-81
2023/02/16 12:05:13;;;;;;;59.60;41.03;;;10.80;99.90;;;;;;4879402;29;50330;-81
2023/02/16 12:07:56;;;;;;;60.50;40.08;;;10.70;99.90;;;;;;4917239;29;49423;-81
2023/02/16 12:13:43;;;;;;;60.38;40.90;;;10.80;99.90;;;;;;5135589;23;20061;-83
2023/02/16 12:16:26;;;;;;;54.67;39.60;;;10.70;99.90;;;;;;4876627;29;47449;-80
2023/02/16 12:19:17;;;;;;;54.55;39.50;;;10.90;99.90;;;;;;4902673;29;38250;-81
2023/02/16 12:21:58;;;;;;;51.42;35.47;;;11.00;99.90;;;;;;4900942;28;48480;-80
2023/02/16 12:24:51;;;;;;;54.13;36.60;;;11.20;99.90;;;;;;4883788;29;37604;-80
2023/02/16 12:27:46;;;;;;;55.97;36.00;;;11.50;99.90;;;;;;4901953;29;39343;-80
2023/02/16 12:30:35;;;;;;;45.53;33.53;;;11.40;99.90;;;;;;4898294;29;37816;-80
2023/02/16 12:33:46;;;;;;;54.58;35.08;;;11.30;99.90;;;;;;4894757;29;38502;-81
2023/02/16 12:36:43;;;;;;;51.35;33.28;;;11.30;99.90;;;;;;4872938;28;41020;-81
2023/02/16 12:39:55;;;;;;;49.25;33.63;;;11.30;99.90;;;;;;4946535;23;38110;-82
2023/02/16 12:43:03;;;;;;;49.45;32.83;;;11.20;99.90;;;;;;4916730;28;38904;-82
2023/02/16 12:45:41;;;;;;;46.50;31.90;;;11.30;99.90;;;;;;4907160;29;48012;-81
2023/02/16 12:48:13;;;;;;;46.72;31.13;;;11.40;99.90;;;;;;4900258;29;37335;-80
2023/02/16 12:50:43;;;;;;;40.40;31.53;;;11.50;99.90;;;;;;4905489;29;38033;-80
2023/02/16 12:53:52;;;;;;;41.22;28.63;;;11.40;99.90;;;;;;4896892;29;36235;-80
2023/02/16 12:56:34;;;;;;;42.60;29.10;;;11.40;99.90;;;;;;4899619;28;38103;-81
2023/02/16 12:59:19;;;;;;;40.40;30.02;;;11.40;99.90;;;;;;4895939;29;37045;-81
2023/02/16 13:01:48;;;;;;;40.50;29.45;;;11.30;99.90;;;;;;4902284;29;47516;-80
2023/02/16 13:04:57;;;;;;;43.33;29.50;;;11.30;99.90;;;;;;4898771;29;36668;-80
2023/02/16 13:07:33;;;;;;;38.63;28.70;;;11.50;99.90;;;;;;4858518;28;39129;-80
2023/02/16 13:10:20;;;;;;;40.30;28.17;;;11.50;99.90;;;;;;4881762;29;39411;-78
2023/02/16 13:12:49;;;;;;;38.17;28.75;;;11.60;99.90;;;;;;4882799;29;48225;-79
2023/02/16 13:15:29;;;;;;;37.10;27.45;;;11.50;99.90;;;;;;4864785;29;36597;-80
2023/02/16 13:18:15;;;;;;;38.88;28.00;;;11.50;99.90;;;;;;4880021;29;38850;-77
2023/02/16 13:20:47;;;;;;;41.13;27.15;;;11.50;99.90;;;;;;4859693;29;47162;-78
2023/02/16 13:23:49;;;;;;;40.15;27.98;;;11.50;99.90;;;;;;4881582;29;37870;-77
2023/02/16 13:26:33;;;;;;;41.30;27.65;;;11.60;99.90;;;;;;4883051;29;37309;-77
2023/02/16 13:29:02;;;;;;;40.30;28.38;;;11.60;99.90;;;;;;4863530;29;37894;-77
2023/02/16 13:31:48;;;;;;;42.25;28.85;;;11.70;99.90;;;;;;4864298;29;37319;-78
2023/02/16 13:34:37;;;;;;;36.63;27.65;;;11.60;99.90;;;;;;4872807;29;36951;-78
2023/02/16 13:37:15;;;;;;;37.83;28.30;;;11.50;99.90;;;;;;4879660;29;37940;-78
2023/02/16 13:40:12;;;;;;;35.60;27.25;;;11.50;99.90;;;;;;4868667;29;37882;-78
2023/02/16 13:43:03;;;;;;;36.25;27.90;;;11.60;99.90;;;;;;4885716;29;48524;-77
2023/02/16 13:45:33;;;;;;;39.80;28.92;;;11.70;99.90;;;;;;4866740;29;47479;-77
2023/02/16 13:48:00;;;;;;;37.10;28.13;;;11.80;99.90;;;;;;4884757;29;37423;-77
2023/02/16 13:50:30;;;;;;;38.00;28.65;;;11.80;99.90;;;;;;4877429;29;37596;-78
2023/02/16 13:53:08;;;;;;;36.88;27.52;;;11.80;99.90;;;;;;4883092;29;39313;-78
2023/02/16 13:55:37;;;;;;;36.47;27.08;;;11.60;99.90;;;;;;4880031;29;48139;-78
2023/02/16 13:58:09;;;;;;;37.53;26.60;;;11.60;99.90;;;;;;4877006;29;37541;-79
2023/02/16 14:00:40;;;;;;;36.72;27.70;;;11.50;99.90;;;;;;4884421;29;37275;-78
2023/02/16 14:03:21;;;;;;;41.58;27.13;;;11.50;99.90;;;;;;4880157;29;37160;-77
2023/02/16 14:05:49;;;;;;;32.78;26.35;;;11.50;99.90;;;;;;4865708;29;38844;-79
2023/02/16 14:08:26;;;;;;;44.22;27.23;;;11.60;99.90;;;;;;4878542;29;37994;-78
2023/02/16 14:10:53;;;;;;;36.35;26.63;;;11.50;99.90;;;;;;4877663;29;38512;-77
2023/02/16 14:13:26;;;;;;;35.80;26.10;;;11.60;99.90;;;;;;4879357;29;37831;-77
2023/02/16 14:15:55;;;;;;;35.83;25.65;;;11.70;99.90;;;;;;4861655;29;39374;-77
2023/02/16 14:18:41;;;;;;;37.10;26.05;;;11.70;99.90;;;;;;4878963;29;37055;-78
2023/02/16 14:21:39;;;;;;;33.72;25.17;;;11.80;99.90;;;;;;4879723;29;39984;-78
2023/02/16 14:24:12;;;;;;;36.22;27.60;;;11.70;99.90;;;;;;4868431;29;39121;-78
2023/02/16 14:26:59;;;;;;;37.25;26.27;;;11.60;99.90;;;;;;4869162;29;38102;-78
2023/02/16 14:29:35;;;;;;;34.33;25.38;;;11.50;99.90;;;;;;4881544;29;37654;-79
2023/02/16 14:32:23;;;;;;;34.65;25.88;;;11.40;99.90;;;;;;4882298;29;39042;-78
2023/02/16 14:35:19;;;;;;;38.13;26.95;;;11.30;99.90;;;;;;4863884;29;47032;-78
2023/02/16 14:38:12;;;;;;;35.83;26.45;;;11.20;99.90;;;;;;4859563;29;47248;-78
2023/02/16 14:40:44;;;;;;;39.08;28.35;;;11.10;99.90;;;;;;4862801;29;46900;-79
2023/02/16 14:43:38;;;;;;;38.90;28.97;;;11.00;99.90;;;;;;4863647;29;38210;-79
2023/02/16 14:46:23;;;;;;;40.10;29.35;;;11.00;99.90;;;;;;4842038;29;39371;-79
2023/02/16 14:49:07;;;;;;;39.97;30.23;;;10.90;99.90;;;;;;4864644;29;37574;-79
2023/02/16 14:52:11;;;;;;;44.67;29.80;;;10.80;99.90;;;;;;4860985;29;47177;-80
2023/02/16 14:54:40;;;;;;;44.42;29.90;;;10.80;99.90;;;;;;4812609;29;48625;-79
2023/02/16 14:57:11;;;;;;;40.92;30.33;;;10.80;99.90;;;;;;4803934;29;38535;-79
2023/02/16 15:00:07;;;;;;;44.63;30.30;;;10.80;99.90;;;;;;4820763;29;37302;-78
2023/02/16 15:02:37;;;;;;;39.13;28.07;;;10.80;99.90;;;;;;4853953;29;36157;-79
2023/02/16 15:05:34;;;;;;;40.03;29.43;;;10.80;99.90;;;;;;4865546;29;37978;-79
2023/02/16 15:08:11;;;;;;;42.23;28.87;;;10.80;99.90;;;;;;4853760;29;40115;-78
2023/02/16 15:10:39;;;;;;;37.53;27.57;;;10.70;99.90;;;;;;4864615;29;48412;-78
2023/02/16 15:13:05;;;;;;;37.13;27.77;;;10.70;99.90;;;;;;4860546;29;36369;-78
2023/02/16 15:15:41;;;;;;;41.70;28.13;;;10.70;99.90;;;;;;4843663;29;39932;-78
2023/02/16 15:18:14;;;;;;;37.40;26.70;;;10.70;99.90;;;;;;4863565;29;38867;-78
2023/02/16 15:20:44;;;;;;;35.65;25.92;;;10.70;99.90;;;;;;4861816;29;39044;-78
2023/02/16 15:23:20;;;;;;;33.23;25.07;;;10.70;99.90;;;;;;4857265;29;37872;-78
2023/02/16 15:25:59;;;;;;;34.33;25.53;;;10.70;99.90;;;;;;4863565;29;39369;-79
2023/02/16 15:28:29;;;;;;;38.53;25.90;;;10.70;99.90;;;;;;4852271;29;39116;-79
2023/02/16 15:31:00;;;;;;;34.20;25.70;;;10.70;99.90;;;;;;4848708;29;39852;-78
2023/02/16 15:33:49;;;;;;;36.63;25.92;;;10.70;99.90;;;;;;4867773;29;37639;-78
2023/02/16 15:36:17;;;;;;;38.40;25.37;;;10.70;99.90;;;;;;4856554;29;39160;-78
2023/02/16 15:38:56;;;;;;;36.97;24.80;;;10.70;99.90;;;;;;4852272;29;39004;-78
2023/02/16 15:41:33;;;;;;;36.47;25.70;;;10.80;99.90;;;;;;4883450;29;37433;-78
2023/02/16 15:44:01;;;;;;;39.33;27.20;;;10.80;99.90;;;;;;4865677;29;36710;-77
2023/02/16 15:46:38;;;;;;;35.47;26.27;;;10.80;99.90;;;;;;4869000;29;49423;-78
2023/02/16 15:49:31;;;;;;;43.50;27.15;;;10.70;99.90;;;;;;4882974;29;37520;-79
2023/02/16 15:51:58;;;;;;;;;;;10.60;99.90;;;;;;4881253;29;39641;-79
2023/02/16 15:54:28;;;;;;;40.50;27.97;;;10.60;99.90;;;;;;4883373;29;35204;-79
2023/02/16 15:57:03;;;;;;;46.97;30.93;;;10.50;99.90;;;;;;4869903;29;37885;-80
2023/02/16 15:59:42;;;;;;;49.50;30.43;;;10.40;99.90;;;;;;4892172;29;47258;-79
2023/02/16 16:02:20;;;;;;;40.97;30.25;;;10.40;99.90;;;;;;4881926;29;38012;-79
2023/02/16 16:04:53;;;;;;;42.15;30.75;;;10.30;99.90;;;;;;4880536;29;38361;-79
2023/02/16 16:07:30;;;;;;;52.07;30.37;;;10.30;99.90;;;;;;4889017;29;38331;-79
2023/02/16 16:09:58;;;;;;;49.03;33.63;;;10.20;99.90;;;;;;4888233;29;38470;-79
2023/02/16 16:12:25;;;;;;;50.00;33.83;;;10.20;99.90;;;;;;4886337;29;37155;-79
2023/02/16 16:14:56;;;;;;;49.17;34.97;;;10.20;99.90;;;;;;4890361;29;37747;-79
2023/02/16 16:17:36;;;;;;;55.17;36.03;;;10.20;99.90;;;;;;4887163;29;39012;-80
2023/02/16 16:20:31;;;;;;;54.93;34.90;;;10.10;99.90;;;;;;4878857;29;37146;-80
2023/02/16 16:23:01;;;;;;;59.30;39.10;;;10.10;99.90;;;;;;4890905;29;48697;-79
2023/02/16 16:25:33;;;;;;;50.80;37.10;;;10.10;99.90;;;;;;4890878;29;47401;-80
2023/02/16 16:28:00;;;;;;;58.40;38.03;;;10.10;99.90;;;;;;4895925;29;38164;-81
2023/02/16 16:30:30;;;;;;;55.57;38.90;;;10.10;99.90;;;;;;4878648;29;46383;-80
2023/02/16 16:33:05;;;;;;;60.70;39.33;;;10.00;99.90;;;;;;4878079;29;38557;-80
2023/02/16 16:35:36;;;;;;;62.30;40.13;;;10.10;99.90;;;;;;4875733;29;47516;-80
2023/02/16 16:38:04;;;;;;;59.73;40.53;;;10.00;99.90;;;;;;4873510;29;37442;-80
2023/02/16 16:40:38;;;;;;;56.87;38.47;;;10.00;99.90;;;;;;4875336;29;39557;-80
2023/02/16 16:43:15;;;;;;;57.57;37.90;;;10.00;99.90;;;;;;4893935;29;37384;-80
2023/02/16 16:45:53;;;;;;;63.33;41.20;;;10.00;99.90;;;;;;4877156;29;36398;-79
2023/02/16 16:48:29;;;;;;;60.47;39.57;;;10.00;99.90;;;;;;4891164;29;38080;-80
2023/02/16 16:51:12;;;;;;;62.67;40.43;;;10.00;99.90;;;;;;4891197;29;37209;-80
2023/02/16 16:53:53;;;;;;;60.43;38.20;;;10.00;99.90;;;;;;4891165;29;47398;-80
2023/02/16 16:56:19;;;;;;;57.97;39.73;;;10.00;99.90;;;;;;4891428;29;37671;-80
2023/02/16 16:58:51;;;;;;;60.20;38.83;;;10.00;99.90;;;;;;4877620;29;38934;-80
2023/02/16 17:01:18;;;;;;;58.07;39.23;;;10.00;99.90;;;;;;4896081;29;38565;-80
2023/02/16 17:03:45;;;;;;;57.90;38.37;;;10.00;99.90;;;;;;4891708;29;36146;-80
2023/02/16 17:06:16;;;;;;;63.17;39.23;;;10.00;99.90;;;;;;4881768;29;36596;-80
2023/02/16 17:08:43;;;;;;;65.03;41.33;;;10.00;99.90;;;;;;4882409;29;39068;-80
2023/02/16 17:11:28;;;;;;;49.03;35.97;;;10.00;99.90;;;;;;4884555;29;38072;-80
2023/02/16 17:13:56;;;;;;;57.13;37.27;;;10.00;99.90;;;;;;4890064;29;37504;-80
2023/02/16 17:16:31;;;;;;;54.80;37.17;;;10.00;99.90;;;;;;4894909;29;36238;-81
2023/02/16 17:18:59;;;;;;;61.37;38.63;;;10.00;99.90;;;;;;4909169;29;39375;-81
2023/02/16 17:21:25;;;;;;;53.67;35.50;;;9.90;99.90;;;;;;4902688;29;40115;-81
2023/02/16 17:23:52;;;;;;;57.60;38.60;;;9.90;99.90;;;;;;4879872;29;37820;-81
2023/02/16 17:26:21;;;;;;;61.93;37.30;;;10.00;99.90;;;;;;4879891;29;37056;-82
2023/02/16 17:28:48;;;;;;;51.37;34.17;;;10.00;99.90;;;;;;4906174;29;38844;-81
2023/02/16 17:31:15;;;;;;;64.05;39.15;;;10.00;99.90;;;;;;4904686;29;38151;-80
2023/02/16 17:33:41;;;;;;;54.97;35.13;;;10.00;99.90;;;;;;4895768;29;37066;-81
2023/02/16 17:36:11;;;;;;;55.70;36.10;;;9.90;99.90;;;;;;4889147;29;35986;-80
2023/02/16 17:38:38;;;;;;;55.93;36.07;;;10.00;99.90;;;;;;4886324;29;38670;-81